createdAt,value
2023-04-12T00:00:52.852Z,0.95
2023-04-12T00:03:21.014Z,1.00
2023-04-12T00:05:48.790Z,1.52
2023-04-12T00:08:16.733Z,1.33
2023-04-12T00:10:43.516Z,1.13
2023-04-12T00:13:10.182Z,1.27
2023-04-12T00:15:37.057Z,1.13
2023-04-12T00:18:03.873Z,1.30
2023-04-12T00:20:30.668Z,1.33
2023-04-12T00:22:57.779Z,0.90
2023-04-12T00:25:24.494Z,1.40
2023-04-12T00:27:51.429Z,1.25
2023-04-12T00:30:18.068Z,1.15
2023-04-12T00:32:44.693Z,1.00
2023-04-12T00:35:11.584Z,1.27
2023-04-12T00:37:38.738Z,1.10
2023-04-12T00:40:10.086Z,1.00
2023-04-12T00:42:37.545Z,1.10
2023-04-12T00:45:05.024Z,1.23
2023-04-12T00:47:32.309Z,0.95
2023-04-12T00:49:59.317Z,0.90
2023-04-12T00:52:28.171Z,0.98
2023-04-12T00:54:54.857Z,1.10
2023-04-12T00:57:22.395Z,1.30
2023-04-12T00:59:49.189Z,1.00
2023-04-12T01:02:17.487Z,0.90
2023-04-12T01:04:50.594Z,1.25
2023-04-12T01:07:30.185Z,1.20
2023-04-12T01:10:09.975Z,1.00
2023-04-12T01:12:43.058Z,1.10
2023-04-12T01:15:12.993Z,1.05
2023-04-12T01:17:47.848Z,1.15
2023-04-12T01:20:26.480Z,0.95
2023-04-12T01:23:32.059Z,0.98
2023-04-12T01:26:21.812Z,1.08
2023-04-12T01:28:53.053Z,0.95
2023-04-12T01:31:21.525Z,1.05
2023-04-12T01:33:50.544Z,0.88
2023-04-12T01:36:21.385Z,1.02
2023-04-12T01:38:48.603Z,1.05
2023-04-12T01:41:16.294Z,0.80
2023-04-12T01:43:44.304Z,0.80
2023-04-12T01:46:12.937Z,1.02
2023-04-12T01:48:39.611Z,0.90
2023-04-12T01:51:10.432Z,0.88
2023-04-12T01:53:45.411Z,1.08
2023-04-12T01:56:12.449Z,1.05
2023-04-12T01:58:39.881Z,1.00
2023-04-12T02:01:08.346Z,0.90
2023-04-12T02:03:37.538Z,1.10
2023-04-12T02:06:05.468Z,0.85
2023-04-12T02:08:32.003Z,0.88
2023-04-12T02:10:58.450Z,0.90
2023-04-12T02:13:26.609Z,0.90
2023-04-12T02:15:54.829Z,1.02
2023-04-12T02:18:21.759Z,0.85
2023-04-12T02:20:50.080Z,0.90
2023-04-12T02:23:16.496Z,1.00
2023-04-12T02:25:44.145Z,1.10
2023-04-12T02:28:10.599Z,0.80
2023-04-12T02:30:38.396Z,0.80
2023-04-12T02:33:06.185Z,0.80
2023-04-12T02:35:32.902Z,0.77
2023-04-12T02:37:59.397Z,0.88
2023-04-12T02:40:25.980Z,0.80
2023-04-12T02:42:52.554Z,0.90
2023-04-12T02:45:18.999Z,0.95
2023-04-12T02:47:45.529Z,1.02
2023-04-12T02:50:12.001Z,0.80
2023-04-12T02:52:38.490Z,1.00
2023-04-12T02:55:05.370Z,0.80
2023-04-12T02:57:31.841Z,0.98
2023-04-12T02:59:58.340Z,0.70
2023-04-12T03:02:24.953Z,0.90
2023-04-12T03:04:51.543Z,0.88
2023-04-12T03:07:19.674Z,0.90
2023-04-12T03:09:49.991Z,1.08
2023-04-12T03:12:16.696Z,0.80
2023-04-12T03:14:43.542Z,0.80
2023-04-12T03:17:10.125Z,1.08
2023-04-12T03:19:36.845Z,1.10
2023-04-12T03:22:04.525Z,0.85
2023-04-12T03:24:34.230Z,0.80
2023-04-12T03:27:05.596Z,1.02
2023-04-12T03:29:32.159Z,0.80
2023-04-12T03:31:59.596Z,0.70
2023-04-12T03:34:32.311Z,0.90
2023-04-12T03:37:02.056Z,0.75
2023-04-12T03:39:29.035Z,0.68
2023-04-12T03:41:55.597Z,1.10
2023-04-12T03:44:22.581Z,0.73
2023-04-12T03:46:49.237Z,0.80
2023-04-12T03:49:16.731Z,0.82
2023-04-12T03:51:43.685Z,0.90
2023-04-12T03:54:10.930Z,0.88
2023-04-12T03:56:38.642Z,0.95
2023-04-12T03:59:07.736Z,0.90
2023-04-12T04:01:35.590Z,1.00
2023-04-12T04:04:03.781Z,0.85
2023-04-12T04:06:30.595Z,0.77
2023-04-12T04:09:00.151Z,0.70
2023-04-12T04:11:28.115Z,1.00
2023-04-12T04:13:54.842Z,0.70
2023-04-12T04:16:21.534Z,0.88
2023-04-12T04:18:48.041Z,0.80
2023-04-12T04:21:14.643Z,0.82
2023-04-12T04:23:44.894Z,0.70
2023-04-12T04:26:11.928Z,0.80
2023-04-12T04:28:45.561Z,0.80
2023-04-12T04:31:12.870Z,0.80
2023-04-12T04:33:40.223Z,0.77
2023-04-12T04:36:09.873Z,0.77
2023-04-12T04:38:36.428Z,0.80
2023-04-12T04:41:03.450Z,0.90
2023-04-12T04:43:30.673Z,0.68
2023-04-12T04:45:58.229Z,0.68
2023-04-12T04:48:24.959Z,0.80
2023-04-12T04:50:54.443Z,0.80
2023-04-12T04:53:22.840Z,0.70
2023-04-12T04:55:49.432Z,0.73
2023-04-12T04:58:16.652Z,0.80
2023-04-12T05:00:46.063Z,0.75
2023-04-12T05:03:12.664Z,0.60
2023-04-12T05:05:39.974Z,0.70
2023-04-12T05:08:06.489Z,0.70
2023-04-12T05:10:33.084Z,0.70
2023-04-12T05:12:59.532Z,0.70
2023-04-12T05:15:26.025Z,0.52
2023-04-12T05:17:52.576Z,0.70
2023-04-12T05:20:22.459Z,0.80
2023-04-12T05:22:48.976Z,0.57
2023-04-12T05:25:15.590Z,0.85
2023-04-12T05:27:42.069Z,0.70
2023-04-12T05:30:09.201Z,0.70
2023-04-12T05:32:35.736Z,0.80
2023-04-12T05:35:02.420Z,0.77
2023-04-12T05:37:28.953Z,0.57
2023-04-12T05:39:55.722Z,0.80
2023-04-12T05:42:22.234Z,0.70
2023-04-12T05:44:49.951Z,0.70
2023-04-12T05:47:16.813Z,0.80
2023-04-12T05:49:43.528Z,0.75
2023-04-12T05:52:10.005Z,0.80
2023-04-12T05:54:36.578Z,0.60
2023-04-12T05:57:03.293Z,0.47
2023-04-12T05:59:29.777Z,0.77
2023-04-12T06:01:56.504Z,0.70
2023-04-12T06:04:24.156Z,0.63
2023-04-12T06:06:56.194Z,0.80
2023-04-12T06:09:23.060Z,0.68
2023-04-12T06:11:49.538Z,0.70
2023-04-12T06:14:15.982Z,0.80
2023-04-12T06:16:42.626Z,0.65
2023-04-12T06:19:10.996Z,0.80
2023-04-12T06:21:37.461Z,0.70
2023-04-12T06:24:04.020Z,0.70
2023-04-12T06:26:38.866Z,0.70
2023-04-12T06:29:06.538Z,0.60
2023-04-12T06:31:33.078Z,0.80
2023-04-12T06:34:00.987Z,0.65
2023-04-12T06:36:27.457Z,0.80
2023-04-12T06:38:55.365Z,0.68
2023-04-12T06:41:22.174Z,0.60
2023-04-12T06:43:48.803Z,0.60
2023-04-12T06:46:18.636Z,0.70
2023-04-12T06:48:45.148Z,0.70
2023-04-12T06:51:11.714Z,0.70
2023-04-12T06:53:39.244Z,0.70
2023-04-12T06:56:09.039Z,0.85
2023-04-12T06:58:35.562Z,0.65
2023-04-12T07:01:06.835Z,0.60
2023-04-12T07:03:34.261Z,0.70
2023-04-12T07:06:07.765Z,0.63
2023-04-12T07:08:44.026Z,0.63
2023-04-12T07:13:41.119Z,0.63
2023-04-12T07:16:07.955Z,0.65
2023-04-12T07:18:34.942Z,0.70
2023-04-12T07:21:01.703Z,0.60
2023-04-12T07:23:28.301Z,0.60
2023-04-12T07:25:59.288Z,0.57
2023-04-12T07:28:25.764Z,0.73
2023-04-12T07:30:52.234Z,0.68
2023-04-12T07:33:20.010Z,0.77
2023-04-12T07:35:46.807Z,0.82
2023-04-12T07:38:14.054Z,0.80
2023-04-12T07:40:41.984Z,0.77
2023-04-12T07:43:08.434Z,0.73
2023-04-12T07:45:37.476Z,0.77
2023-04-12T07:48:04.355Z,0.77
2023-04-12T07:50:31.189Z,0.88
2023-04-12T07:53:17.458Z,0.50
2023-04-12T07:55:43.994Z,0.80
2023-04-12T07:58:10.572Z,0.75
2023-04-12T08:00:37.061Z,0.55
2023-04-12T08:03:04.060Z,0.70
2023-04-12T08:05:30.833Z,0.70
2023-04-12T08:07:57.286Z,0.80
2023-04-12T08:10:23.832Z,0.80
2023-04-12T08:12:50.325Z,0.80
2023-04-12T08:15:16.856Z,0.80
2023-04-12T08:17:44.042Z,0.88
2023-04-12T08:20:11.287Z,0.75
2023-04-12T08:22:37.867Z,1.05
2023-04-12T08:25:04.583Z,0.70
2023-04-12T08:27:31.226Z,0.80
2023-04-12T08:29:57.860Z,0.70
2023-04-12T08:32:24.504Z,1.50
2023-04-12T08:34:51.464Z,1.50
2023-04-12T08:37:18.086Z,1.42
2023-04-12T08:39:44.598Z,1.60
2023-04-12T08:42:11.259Z,1.67
2023-04-12T08:44:38.946Z,1.13
2023-04-12T08:47:06.648Z,1.40
2023-04-12T08:49:34.438Z,1.48
2023-04-12T08:52:05.751Z,1.52
2023-04-12T08:54:36.399Z,1.25
2023-04-12T08:57:05.085Z,1.42
2023-04-12T08:59:32.560Z,1.65
2023-04-12T09:01:59.470Z,1.42
2023-04-12T09:04:29.784Z,1.50
2023-04-12T09:06:56.572Z,1.60
2023-04-12T09:09:43.010Z,1.45
2023-04-12T09:12:11.070Z,1.33
2023-04-12T09:14:39.405Z,1.63
2023-04-12T09:17:21.915Z,1.67
2023-04-12T09:19:48.548Z,1.65
2023-04-12T09:22:15.083Z,1.58
2023-04-12T09:24:53.062Z,1.60
2023-04-12T09:27:22.681Z,1.67
2023-04-12T09:29:51.625Z,1.52
2023-04-12T09:32:28.682Z,1.48
2023-04-12T09:35:01.194Z,1.70
2023-04-12T09:37:28.056Z,1.85
2023-04-12T09:40:09.390Z,1.65
2023-04-12T09:42:49.004Z,1.48
2023-04-12T09:45:26.400Z,1.40
2023-04-12T09:47:54.327Z,1.58
2023-04-12T09:50:22.914Z,1.60
2023-04-12T09:52:49.618Z,1.48
2023-04-12T09:55:17.429Z,1.60
2023-04-12T09:57:45.116Z,1.52
2023-04-12T10:00:17.265Z,1.45
2023-04-12T10:02:55.555Z,1.48
2023-04-12T10:05:26.598Z,1.40
2023-04-12T10:07:54.984Z,1.70
2023-04-12T10:10:22.903Z,1.63
2023-04-12T10:12:50.168Z,1.60
2023-04-12T10:15:18.114Z,1.63
2023-04-12T10:17:51.463Z,1.80
2023-04-12T10:20:19.665Z,1.65
2023-04-12T10:22:48.297Z,1.98
2023-04-12T10:25:16.967Z,1.55
2023-04-12T10:27:45.061Z,1.73
2023-04-12T10:30:31.705Z,1.50
2023-04-12T10:33:04.443Z,1.48
2023-04-12T10:35:55.808Z,1.63
2023-04-12T10:38:26.626Z,1.92
2023-04-12T10:41:19.210Z,1.58
2023-04-12T10:43:47.428Z,1.58
2023-04-12T10:46:39.800Z,1.58
2023-04-12T10:49:14.103Z,1.60
2023-04-12T10:52:02.569Z,1.38
2023-04-12T10:54:30.053Z,1.52
2023-04-12T10:56:57.500Z,1.60
2023-04-12T10:59:31.305Z,1.70
2023-04-12T11:02:10.045Z,1.50
2023-04-12T11:04:37.290Z,1.50
2023-04-12T11:07:07.366Z,1.60
2023-04-12T11:09:33.927Z,1.70
2023-04-12T11:12:08.790Z,1.50
2023-04-12T11:14:46.594Z,1.65
2023-04-12T11:17:13.372Z,1.40
2023-04-12T11:19:44.914Z,1.27
2023-04-12T11:22:15.483Z,1.75
2023-04-12T11:24:46.234Z,1.70
2023-04-12T11:27:12.825Z,1.60
2023-04-12T11:29:39.717Z,1.60
2023-04-12T11:32:12.114Z,1.67
2023-04-12T11:34:38.801Z,2.38
2023-04-12T11:37:08.338Z,1.60
2023-04-12T11:39:37.030Z,1.50
2023-04-12T11:42:04.096Z,1.65
2023-04-12T11:44:47.937Z,1.33
2023-04-12T11:47:22.047Z,1.30
2023-04-12T11:49:58.909Z,1.30
2023-04-12T11:52:33.447Z,1.45
2023-04-12T11:55:06.731Z,1.60
2023-04-12T11:57:34.668Z,1.55
2023-04-12T12:00:01.944Z,1.30
2023-04-12T12:02:32.365Z,1.50
2023-04-12T12:05:01.815Z,1.60
2023-04-12T12:07:28.652Z,1.60
2023-04-12T12:09:55.773Z,1.65
2023-04-12T12:12:23.769Z,1.88
2023-04-12T12:14:50.370Z,1.50
2023-04-12T12:17:17.461Z,1.58
2023-04-12T12:19:45.545Z,1.55
2023-04-12T12:22:17.236Z,1.45
2023-04-12T12:24:51.521Z,1.30
2023-04-12T12:27:20.095Z,1.45
2023-04-12T12:29:53.706Z,1.50
2023-04-12T12:32:23.135Z,1.60
2023-04-12T12:34:51.852Z,1.45
2023-04-12T12:37:21.623Z,1.30
2023-04-12T12:40:13.570Z,1.30
2023-04-12T12:42:54.878Z,1.40
2023-04-12T12:45:26.317Z,1.38
2023-04-12T12:47:54.026Z,1.40
2023-04-12T12:50:25.145Z,1.10
2023-04-12T12:52:52.915Z,1.55
2023-04-12T12:55:21.345Z,1.33
2023-04-12T12:58:02.261Z,1.60
2023-04-12T13:00:33.790Z,1.30
2023-04-12T13:03:00.800Z,1.40
2023-04-12T13:05:27.565Z,1.55
2023-04-12T13:07:54.039Z,1.52
2023-04-12T13:10:20.628Z,1.40
2023-04-12T13:12:47.097Z,1.42
2023-04-12T13:15:22.043Z,1.42
2023-04-12T13:17:52.948Z,1.23
2023-04-12T13:20:19.635Z,1.10
2023-04-12T13:22:46.167Z,1.42
2023-04-12T13:25:12.646Z,1.10
2023-04-12T13:27:39.099Z,1.33
2023-04-12T13:30:06.400Z,1.50
2023-04-12T13:32:33.027Z,1.58
2023-04-12T13:34:59.592Z,1.38
2023-04-12T13:37:26.248Z,1.50
2023-04-12T13:39:52.910Z,1.33
2023-04-12T13:42:19.502Z,1.27
2023-04-12T13:44:46.186Z,1.50
2023-04-12T13:47:12.692Z,1.13
2023-04-12T13:49:39.161Z,1.48
2023-04-12T13:52:05.808Z,1.15
2023-04-12T13:54:32.389Z,1.13
2023-04-12T13:56:59.357Z,1.42
2023-04-12T13:59:26.824Z,1.10
2023-04-12T14:01:54.206Z,1.38
2023-04-12T14:04:21.054Z,1.00
2023-04-12T14:06:47.543Z,1.23
2023-04-12T14:09:25.547Z,1.20
2023-04-12T14:11:52.826Z,1.40
2023-04-12T14:14:19.451Z,1.20
2023-04-12T14:16:46.703Z,1.10
2023-04-12T14:19:13.264Z,1.52
2023-04-12T14:21:39.789Z,1.30
2023-04-12T14:24:06.360Z,1.00
2023-04-12T14:26:32.826Z,1.38
2023-04-12T14:28:59.959Z,1.00
2023-04-12T14:31:26.733Z,1.30
2023-04-12T14:33:53.716Z,1.20
2023-04-12T14:36:20.338Z,1.33
2023-04-12T14:38:46.865Z,1.20
2023-04-12T14:41:14.053Z,1.30
2023-04-12T14:43:40.953Z,1.10
2023-04-12T14:46:07.639Z,1.27
2023-04-12T14:48:34.320Z,1.20
2023-04-12T14:51:00.911Z,1.10
2023-04-12T14:53:27.384Z,1.10
2023-04-12T14:55:53.842Z,1.17
2023-04-12T14:58:20.346Z,1.20
2023-04-12T15:00:47.446Z,1.30
2023-04-12T15:03:15.668Z,1.05
2023-04-12T15:05:42.231Z,1.40
2023-04-12T15:08:08.696Z,2.53
2023-04-12T15:10:35.239Z,1.90
2023-04-12T15:13:01.712Z,1.60
2023-04-12T15:15:28.154Z,1.70
2023-04-12T15:17:54.676Z,2.00
2023-04-12T15:20:21.128Z,2.30
2023-04-12T15:22:47.631Z,1.70
2023-04-12T15:25:14.190Z,1.52
2023-04-12T15:27:40.810Z,1.50
2023-04-12T15:30:12.219Z,1.38
2023-04-12T15:32:41.374Z,1.58
2023-04-12T15:35:25.326Z,1.98
2023-04-12T15:37:55.045Z,1.60
2023-04-12T15:40:22.957Z,1.45
2023-04-12T15:42:49.616Z,1.25
2023-04-12T15:45:16.223Z,1.15
2023-04-12T15:47:42.859Z,1.85
2023-04-12T15:50:09.758Z,4.30
2023-04-12T15:52:36.449Z,4.50
2023-04-12T15:55:05.185Z,4.63
2023-04-12T15:57:32.386Z,4.47
2023-04-12T15:59:59.907Z,4.82
2023-04-12T16:02:27.009Z,4.53
2023-04-12T16:04:55.980Z,4.35
2023-04-12T16:07:22.805Z,4.68
2023-04-12T16:09:49.327Z,4.63
2023-04-12T16:12:16.037Z,4.22
2023-04-12T16:14:42.647Z,3.92
2023-04-12T16:17:09.244Z,3.72
2023-04-12T16:19:35.835Z,4.00
2023-04-12T16:22:03.691Z,4.13
2023-04-12T16:24:30.250Z,3.78
2023-04-12T16:26:57.481Z,3.75
2023-04-12T16:29:24.737Z,3.50
2023-04-12T16:31:52.238Z,3.10
2023-04-12T16:34:21.931Z,3.33
2023-04-12T16:36:48.916Z,3.53
2023-04-12T16:39:15.436Z,3.17
2023-04-12T16:41:42.147Z,3.00
2023-04-12T16:44:08.793Z,3.38
2023-04-12T16:46:35.318Z,3.10
2023-04-12T16:49:03.805Z,2.75
2023-04-12T16:51:36.828Z,2.75
2023-04-12T16:54:04.228Z,2.78
2023-04-12T16:56:30.658Z,2.72
2023-04-12T16:58:59.006Z,2.88
2023-04-12T17:01:25.572Z,2.53
2023-04-12T17:03:52.261Z,2.30
2023-04-12T17:06:19.504Z,2.42
2023-04-12T17:08:46.701Z,2.50
2023-04-12T17:11:13.665Z,2.47
2023-04-12T17:13:40.298Z,2.40
2023-04-12T17:16:07.200Z,2.10
2023-04-12T17:18:34.644Z,2.10
2023-04-12T17:21:01.337Z,1.98
2023-04-12T17:23:28.374Z,2.35
2023-04-12T17:25:56.099Z,2.42
2023-04-12T17:28:22.596Z,1.80
2023-04-12T17:30:49.068Z,1.98
2023-04-12T17:33:18.058Z,1.88
2023-04-12T17:35:45.099Z,2.08
2023-04-12T17:38:11.614Z,1.90
2023-04-12T17:40:38.464Z,1.90
2023-04-12T17:43:05.017Z,1.75
2023-04-12T17:45:31.632Z,1.80
2023-04-12T17:47:58.202Z,1.70
2023-04-12T17:50:24.925Z,2.03
2023-04-12T17:52:52.574Z,2.10
2023-04-12T17:55:24.131Z,1.58
2023-04-12T17:57:50.609Z,1.67
2023-04-12T18:00:19.040Z,1.52
2023-04-12T18:02:46.852Z,1.65
2023-04-12T18:05:13.522Z,1.50
2023-04-12T18:07:40.275Z,1.73
2023-04-12T18:10:12.653Z,1.50
2023-04-12T18:12:39.268Z,1.45
2023-04-12T18:15:08.240Z,1.50
2023-04-12T18:17:34.840Z,1.50
2023-04-12T18:20:02.723Z,1.60
2023-04-12T18:22:29.673Z,1.50
2023-04-12T18:24:56.190Z,1.05
2023-04-12T18:27:22.640Z,1.40
2023-04-12T18:29:49.098Z,1.50
2023-04-12T18:32:15.772Z,1.52
2023-04-12T18:34:42.322Z,1.27
2023-04-12T18:37:08.796Z,1.30
2023-04-12T18:39:35.919Z,1.20
2023-04-12T18:42:02.828Z,1.25
2023-04-12T18:44:30.052Z,1.60
2023-04-12T18:46:56.537Z,1.40
2023-04-12T18:49:24.300Z,1.63
2023-04-12T18:51:53.191Z,1.15
2023-04-12T18:54:21.084Z,1.40
2023-04-12T18:56:47.565Z,1.50
2023-04-12T18:59:17.658Z,1.30
2023-04-12T19:01:45.092Z,1.38
2023-04-12T19:04:12.238Z,1.50
2023-04-12T19:06:38.845Z,1.50
2023-04-12T19:09:05.974Z,1.35
2023-04-12T19:11:34.696Z,1.38
2023-04-12T19:14:03.168Z,1.30
2023-04-12T19:16:29.852Z,1.50
2023-04-12T19:19:00.347Z,1.52
2023-04-12T19:21:29.217Z,1.33
2023-04-12T19:23:56.283Z,1.65
2023-04-12T19:26:23.410Z,1.30
2023-04-12T19:28:52.407Z,1.23
2023-04-12T19:31:20.382Z,1.30
2023-04-12T19:33:46.838Z,1.23
2023-04-12T19:36:13.445Z,1.38
2023-04-12T19:38:43.061Z,1.33
2023-04-12T19:41:09.626Z,1.42
2023-04-12T19:43:36.121Z,1.50
2023-04-12T19:46:03.721Z,1.20
2023-04-12T19:48:31.103Z,1.20
2023-04-12T19:50:58.011Z,1.30
2023-04-12T19:53:24.519Z,1.20
2023-04-12T19:55:52.431Z,1.30
2023-04-12T19:58:18.875Z,1.20
2023-04-12T20:00:51.762Z,1.10
2023-04-12T20:03:18.322Z,1.50
2023-04-12T20:05:46.026Z,1.20
2023-04-12T20:08:12.653Z,1.27
2023-04-12T20:10:39.223Z,1.30
2023-04-12T20:13:09.744Z,1.08
2023-04-12T20:15:37.401Z,1.23
2023-04-12T20:18:05.127Z,1.30
2023-04-12T20:20:32.621Z,1.40
2023-04-12T20:22:59.184Z,1.20
2023-04-12T20:25:25.881Z,1.20
2023-04-12T20:27:52.585Z,1.33
2023-04-12T20:30:21.033Z,1.10
2023-04-12T20:32:49.365Z,1.20
2023-04-12T20:35:15.934Z,1.02
2023-04-12T20:37:43.280Z,1.10
2023-04-12T20:40:10.216Z,1.00
2023-04-12T20:42:37.019Z,1.23
2023-04-12T20:45:03.729Z,1.25
2023-04-12T20:47:30.215Z,1.08
2023-04-12T20:49:57.081Z,1.23
2023-04-12T20:52:23.542Z,1.25
2023-04-12T20:54:50.018Z,1.10
2023-04-12T20:57:19.803Z,1.00
2023-04-12T20:59:46.746Z,1.05
2023-04-12T21:02:13.337Z,1.30
2023-04-12T21:04:41.179Z,1.10
2023-04-12T21:07:07.863Z,0.98
2023-04-12T21:09:35.302Z,1.00
2023-04-12T21:12:05.029Z,1.10
2023-04-12T21:14:32.673Z,1.10
2023-04-12T21:17:00.619Z,1.38
2023-04-12T21:19:27.135Z,1.23
2023-04-12T21:21:53.645Z,1.10
2023-04-12T21:24:20.130Z,1.13
2023-04-12T21:26:56.127Z,1.10
2023-04-12T21:29:23.254Z,1.10
2023-04-12T21:31:49.721Z,1.25
2023-04-12T21:34:18.203Z,1.08
2023-04-12T21:36:45.317Z,1.13
2023-04-12T21:39:12.022Z,1.20
2023-04-12T21:41:38.551Z,1.23
2023-04-12T21:44:05.008Z,0.85
2023-04-12T21:46:31.462Z,1.17
2023-04-12T21:48:58.210Z,1.10
2023-04-12T21:51:25.427Z,1.00
2023-04-12T21:53:51.931Z,1.08
2023-04-12T21:56:18.391Z,1.05
2023-04-12T21:58:44.842Z,1.10
2023-04-12T22:01:11.402Z,1.00
2023-04-12T22:03:38.106Z,0.95
2023-04-12T22:06:05.480Z,0.95
2023-04-12T22:08:33.104Z,0.90
2023-04-12T22:11:00.379Z,0.82
2023-04-12T22:13:27.446Z,0.98
2023-04-12T22:15:54.033Z,1.00
2023-04-12T22:18:20.590Z,1.00
2023-04-12T22:20:47.953Z,0.90
2023-04-12T22:23:18.101Z,0.90
2023-04-12T22:25:46.054Z,0.95
2023-04-12T22:28:12.565Z,0.85
2023-04-12T22:30:39.100Z,0.90
2023-04-12T22:33:05.801Z,0.85
2023-04-12T22:35:35.139Z,0.90
2023-04-12T22:38:01.914Z,1.02
2023-04-12T22:40:28.472Z,0.90
2023-04-12T22:42:56.087Z,0.80
2023-04-12T22:45:22.607Z,0.90
2023-04-12T22:47:49.119Z,0.90
2023-04-12T22:50:15.709Z,1.10
2023-04-12T22:52:42.281Z,1.02
2023-04-12T22:55:11.675Z,0.80
2023-04-12T22:57:38.865Z,0.90
2023-04-12T23:00:06.212Z,1.00
2023-04-12T23:02:34.071Z,0.63
2023-04-12T23:05:00.922Z,0.68
2023-04-12T23:07:30.035Z,0.70
2023-04-12T23:09:57.469Z,0.88
2023-04-12T23:12:24.318Z,0.90
2023-04-12T23:14:51.063Z,0.80
2023-04-12T23:17:19.771Z,0.70
2023-04-12T23:19:46.501Z,0.93
2023-04-12T23:22:40.726Z,0.68
2023-04-12T23:25:16.913Z,0.70
2023-04-12T23:27:43.555Z,0.80
2023-04-12T23:30:11.593Z,0.90
2023-04-12T23:32:39.112Z,0.88
2023-04-12T23:35:06.499Z,0.80
2023-04-12T23:37:33.324Z,0.60
2023-04-12T23:40:06.801Z,0.73
2023-04-12T23:42:33.325Z,0.90
2023-04-12T23:45:00.006Z,0.80
2023-04-12T23:47:27.120Z,0.88
2023-04-12T23:49:53.588Z,0.77
2023-04-12T23:52:20.086Z,0.90
2023-04-12T23:54:46.545Z,0.80
2023-04-12T23:57:13.108Z,0.70
2023-04-12T23:59:39.539Z,0.80
